Time;durP1;ratioP1;P1;durP2;ratioP2;P2;SDS_P1;SDS_P2;PMS_P1;PMS_P2;Temp;Humidity;BMP_temperature;BMP_pressure;BME280_temperature;BME280_humidity;BME280_pressure;Samples;Min_cycle;Max_cycle;Signal;HPM_P1;HPM_P2
2023/08/21 07:04:51;;;;;;;11.30;7.15;;;;;;;26.40;68.44;97211.59;2085639;28;20551;-64
2023/08/21 07:07:08;;;;;;;10.88;5.70;;;;;;;26.60;68.92;97211.38;2085990;28;20553;-64
2023/08/21 07:08:10;;;;;;;12.90;5.38;;;;;;;26.78;67.72;97214.06;2082480;28;20243;-64
2023/08/21 07:09:11;;;;;;;16.17;6.40;;;;;;;26.66;67.97;97205.41;2078958;28;20220;-64
2023/08/21 07:10:12;;;;;;;10.73;5.20;;;;;;;26.73;68.65;97207.34;2080294;28;20720;-64
2023/08/21 07:11:14;;;;;;;7.80;5.55;;;;;;;26.96;68.01;97203.31;2081300;28;20189;-65
2023/08/21 07:12:18;;;;;;;9.15;6.15;;;;;;;26.94;68.02;97208.81;2073167;28;20194;-64
2023/08/21 07:13:20;;;;;;;8.35;5.28;;;;;;;27.27;67.14;97203.63;2075322;28;20190;-64
2023/08/21 07:14:22;;;;;;;15.13;5.28;;;;;;;27.29;67.06;97206.16;2073750;28;20213;-65
2023/08/21 07:15:23;;;;;;;9.35;5.63;;;;;;;27.30;66.84;97208.69;2072202;28;20771;-64
2023/08/21 07:16:26;;;;;;;15.27;5.45;;;;;;;27.42;66.37;97211.94;2072212;28;20291;-65
2023/08/21 07:17:27;;;;;;;9.57;5.57;;;;;;;27.26;66.48;97206.47;2074628;28;20202;-66
2023/08/21 07:18:35;;;;;;;11.45;5.55;;;;;;;27.50;66.39;97211.13;2073196;28;20201;-66
2023/08/21 07:19:36;;;;;;;9.10;5.43;;;;;;;27.79;65.96;97215.25;2074681;28;20296;-66
2023/08/21 07:20:37;;;;;;;10.23;5.88;;;;;;;28.10;64.87;97209.28;2073461;28;20419;-66
2023/08/21 07:21:39;;;;;;;8.70;5.13;;;;;;;28.25;64.88;97210.34;2070223;28;20218;-65
2023/08/21 07:22:40;;;;;;;9.93;5.50;;;;;;;28.14;64.72;97210.66;2070901;28;20438;-65
2023/08/21 07:23:42;;;;;;;9.53;5.20;;;;;;;28.29;64.35;97213.50;2074845;28;20918;-65
2023/08/21 07:24:43;;;;;;;10.50;5.03;;;;;;;28.29;64.57;97213.50;2075822;28;20432;-66
2023/08/21 07:25:45;;;;;;;15.33;4.93;;;;;;;28.31;64.13;97214.19;2073222;28;20427;-65
2023/08/21 07:26:46;;;;;;;7.93;5.30;;;;;;;28.64;63.67;97211.50;2072337;28;20479;-66
2023/08/21 07:27:48;;;;;;;11.50;5.30;;;;;;;28.67;64.09;97211.19;2075847;28;20427;-65
2023/08/21 07:28:49;;;;;;;7.40;5.53;;;;;;;28.96;62.98;97217.88;2075850;28;20427;-65
2023/08/21 07:29:51;;;;;;;7.73;5.20;;;;;;;29.23;62.21;97216.63;2075062;28;20431;-66
2023/08/21 07:30:59;;;;;;;13.53;5.70;;;;;;;29.04;62.60;97212.47;2073958;28;20991;-65
2023/08/21 07:32:01;;;;;;;8.23;4.87;;;;;;;28.87;63.42;97213.53;2073640;28;20466;-65
2023/08/21 07:33:03;;;;;;;9.70;5.40;;;;;;;28.79;63.60;97219.75;2074351;28;20423;-66
2023/08/21 07:34:05;;;;;;;15.10;6.30;;;;;;;28.46;64.44;97219.75;2073660;28;20423;-67
2023/08/21 07:35:06;;;;;;;10.60;5.67;;;;;;;28.52;64.46;97225.28;2074456;28;21185;-67
2023/08/21 07:36:08;;;;;;;9.40;5.20;;;;;;;28.53;64.67;97226.09;2076013;28;20449;-67
2023/08/21 07:37:09;;;;;;;14.93;10.20;;;;;;;28.83;64.62;97224.59;2073900;28;20434;-67
2023/08/21 07:38:11;;;;;;;10.37;5.30;;;;;;;28.76;64.28;97220.94;2073112;28;20501;-69
2023/08/21 07:39:12;;;;;;;8.57;6.60;;;;;;;29.01;63.09;97226.25;2075460;28;20428;-68
2023/08/21 07:40:14;;;;;;;13.23;6.30;;;;;;;28.97;63.17;97224.91;2073856;28;20450;-68
2023/08/21 07:41:15;;;;;;;11.47;5.70;;;;;;;28.91;63.79;97228.28;2070625;28;20454;-68
2023/08/21 07:42:17;;;;;;;14.10;5.63;;;;;;;29.21;63.14;97231.25;2071506;28;20462;-68
2023/08/21 07:43:18;;;;;;;9.40;5.40;;;;;;;29.45;62.54;97220.44;2074659;28;20856;-68
2023/08/21 07:44:20;;;;;;;9.13;6.40;;;;;;;29.42;62.74;97228.88;2074962;28;20442;-68
2023/08/21 07:45:21;;;;;;;9.70;5.37;;;;;;;29.53;62.20;97224.94;2071747;28;20454;-69
2023/08/21 07:46:23;;;;;;;10.57;6.20;;;;;;;29.37;62.34;97217.78;2070244;28;20866;-68
2023/08/21 07:47:27;;;;;;;13.50;5.33;;;;;;;29.32;61.97;97225.53;2071095;28;20498;-68
2023/08/21 07:48:28;;;;;;;9.67;5.10;;;;;;;29.33;63.08;97224.50;2073949;28;20439;-68
2023/08/21 07:49:31;;;;;;;11.70;6.27;;;;;;;29.45;62.65;97225.81;2073925;28;20458;-68
2023/08/21 07:50:32;;;;;;;11.10;4.80;;;;;;;29.42;63.00;97228.88;2073982;28;20424;-68
2023/08/21 07:51:34;;;;;;;12.33;5.73;;;;;;;29.62;62.58;97229.28;2073540;28;20490;-68
2023/08/21 07:52:36;;;;;;;6.83;4.90;;;;;;;29.83;62.33;97224.28;2074383;28;20475;-69
2023/08/21 07:53:39;;;;;;;9.10;5.80;;;;;;;29.87;62.35;97228.31;2073544;28;20827;-69
2023/08/21 07:54:40;;;;;;;12.60;5.93;;;;;;;29.83;62.10;97232.34;2073569;28;20788;-68
2023/08/21 07:55:42;;;;;;;48.97;41.73;;;;;;;29.74;62.38;97232.41;2074838;28;20431;-69
2023/08/21 07:56:43;;;;;;;11.83;6.90;;;;;;;29.79;62.20;97227.34;2074245;28;20451;-68
2023/08/21 07:57:45;;;;;;;34.43;19.73;;;;;;;29.96;60.97;97228.09;2073547;28;20774;-68
2023/08/21 07:58:46;;;;;;;9.90;6.87;;;;;;;29.88;61.84;97224.63;2072597;28;20435;-69
2023/08/21 07:59:47;;;;;;;10.00;6.17;;;;;;;30.23;61.57;97227.78;2074623;28;20469;-69
2023/08/21 08:00:49;;;;;;;10.97;5.60;;;;;;;30.09;60.84;97232.09;2073980;28;20430;-69
2023/08/21 08:01:50;;;;;;;11.40;6.13;;;;;;;30.46;59.66;97227.78;2073250;28;20458;-68
2023/08/21 08:02:52;;;;;;;8.47;5.73;;;;;;;30.03;60.62;97236.34;2073051;28;20472;-69
2023/08/21 08:03:53;;;;;;;7.30;5.60;;;;;;;30.54;60.08;97235.00;2073582;28;20427;-69
2023/08/21 08:04:55;;;;;;;9.30;5.43;;;;;;;30.73;59.82;97231.78;2073906;28;20431;-69
2023/08/21 08:05:56;;;;;;;9.30;5.60;;;;;;;30.99;59.41;97233.22;2073966;28;20511;-68
2023/08/21 08:06:58;;;;;;;10.87;5.90;;;;;;;30.97;59.84;97229.91;2068724;28;21081;-69
2023/08/21 08:07:59;;;;;;;7.50;5.10;;;;;;;31.08;59.05;97232.16;2073062;28;20434;-69
2023/08/21 08:09:01;;;;;;;8.90;5.57;;;;;;;31.07;59.08;97232.34;2073942;28;20430;-70
2023/08/21 08:10:03;;;;;;;8.63;5.63;;;;;;;30.97;58.88;97237.13;2073707;28;20514;-69
2023/08/21 08:11:04;;;;;;;11.87;5.97;;;;;;;31.16;58.68;97233.94;2071558;28;20482;-69
2023/08/21 08:12:06;;;;;;;10.10;5.97;;;;;;;31.21;58.21;97242.31;2073509;28;20430;-69
2023/08/21 08:13:10;;;;;;;9.47;5.50;;;;;;;31.04;58.85;97233.50;2073168;28;20774;-69
2023/08/21 08:14:11;;;;;;;8.77;5.70;;;;;;;30.33;60.05;97224.84;2071755;28;20419;-69
2023/08/21 08:15:12;;;;;;;14.60;6.70;;;;;;;29.91;60.88;97229.66;2072264;28;20427;-68
2023/08/21 08:16:14;;;;;;;17.87;8.53;;;;;;;29.93;61.86;97230.34;2071851;28;20420;-68
2023/08/21 08:17:16;;;;;;;7.77;5.80;;;;;;;29.99;62.04;97236.84;2073906;28;20407;-66
2023/08/21 08:18:17;;;;;;;13.70;6.07;;;;;;;29.85;61.75;97230.34;2069696;28;20467;-68
2023/08/21 08:19:19;;;;;;;9.17;6.10;;;;;;;29.91;62.08;97235.06;2068642;28;20426;-68
2023/08/21 08:20:21;;;;;;;11.83;5.30;;;;;;;30.64;59.45;97234.72;2068087;28;20427;-67
2023/08/21 08:21:22;;;;;;;13.60;6.30;;;;;;;31.24;57.64;97233.00;2067599;28;20431;-68
2023/08/21 08:22:23;;;;;;;11.63;5.70;;;;;;;31.60;56.88;97232.22;2067565;28;20463;-68
2023/08/21 08:23:25;;;;;;;9.00;5.40;;;;;;;31.89;55.53;97236.78;2067777;28;20478;-69
2023/08/21 08:24:26;;;;;;;17.33;5.20;;;;;;;32.10;55.28;97235.16;2068777;28;20428;-69
2023/08/21 08:25:28;;;;;;;8.80;4.10;;;;;;;32.24;54.50;97225.34;2067425;28;20520;-68
2023/08/21 08:26:29;;;;;;;9.80;4.83;;;;;;;32.22;54.42;97232.81;2066797;28;20529;-68
2023/08/21 08:27:31;;;;;;;6.30;4.83;;;;;;;32.20;55.18;97232.16;2067635;28;20517;-69
2023/08/21 08:28:32;;;;;;;7.73;4.20;;;;;;;32.46;54.60;97236.16;2065124;28;20519;-68
2023/08/21 08:29:34;;;;;;;10.00;4.03;;;;;;;32.55;54.30;97233.09;2069339;28;20435;-68
2023/08/21 08:30:35;;;;;;;11.57;4.17;;;;;;;32.33;53.48;97237.69;2068828;28;20478;-69
2023/08/21 08:31:38;;;;;;;8.87;4.77;;;;;;;32.05;54.05;97230.31;2066385;28;20506;-68
2023/08/21 08:32:44;;;;;;;9.00;4.10;;;;;;;32.18;53.98;97235.06;2067865;28;20462;-69
2023/08/21 08:33:48;;;;;;;10.33;4.70;;;;;;;31.95;55.07;97229.78;2068509;28;20439;-68
2023/08/21 08:34:49;;;;;;;8.03;4.63;;;;;;;31.89;55.94;97227.84;2064981;28;20509;-68
2023/08/21 08:35:51;;;;;;;8.50;4.63;;;;;;;31.78;56.07;97229.16;2065876;28;20439;-68
2023/08/21 08:36:52;;;;;;;13.57;4.97;;;;;;;32.17;55.50;97227.94;2065849;28;20514;-69
2023/08/21 08:37:54;;;;;;;7.70;4.63;;;;;;;31.70;55.19;97223.88;2066929;28;20420;-68
2023/08/21 08:38:56;;;;;;;12.03;4.17;;;;;;;32.14;54.93;97230.19;2064939;28;20467;-68
2023/08/21 08:39:57;;;;;;;9.87;5.07;;;;;;;32.56;55.02;97226.69;2066823;28;20834;-68
2023/08/21 08:41:02;;;;;;;7.30;4.83;;;;;;;32.65;54.45;97226.56;2068379;28;20428;-68
2023/08/21 08:42:06;;;;;;;5.70;4.60;;;;;;;32.49;55.19;97228.47;2065778;28;20522;-68
2023/08/21 08:43:07;;;;;;;6.80;4.47;;;;;;;32.27;55.72;97224.97;2066629;28;20423;-68
2023/08/21 08:44:12;;;;;;;6.50;4.97;;;;;;;32.31;55.82;97230.81;2064786;28;20437;-69
2023/08/21 08:45:14;;;;;;;7.13;4.30;;;;;;;32.07;56.03;97225.56;2065861;28;20481;-68
2023/08/21 08:46:16;;;;;;;6.80;4.00;;;;;;;32.06;55.85;97231.13;2067155;28;20427;-68
2023/08/21 08:47:19;;;;;;;7.10;4.40;;;;;;;31.94;56.23;97230.81;2067896;28;20420;-69
2023/08/21 08:48:21;;;;;;;8.40;4.43;;;;;;;32.09;55.60;97233.47;2064946;28;20431;-69
2023/08/21 08:49:23;;;;;;;12.00;4.17;;;;;;;32.43;54.98;97231.13;2065050;28;20462;-70
2023/08/21 08:50:27;;;;;;;11.37;4.17;;;;;;;32.26;54.73;97225.97;2064825;28;20440;-69
2023/08/21 08:51:31;;;;;;;8.83;4.77;;;;;;;32.50;54.68;97229.34;2066833;28;20504;-69
2023/08/21 08:52:36;;;;;;;7.47;3.83;;;;;;;32.79;53.80;97235.66;2068502;28;20432;-68
2023/08/21 08:53:38;;;;;;;6.80;4.90;;;;;;;32.96;53.32;97228.88;2065970;28;20523;-70
2023/08/21 08:54:40;;;;;;;11.63;4.30;;;;;;;33.20;53.05;97233.03;2064643;28;20446;-68
2023/08/21 08:55:41;;;;;;;8.50;5.00;;;;;;;32.29;53.41;97230.16;2065317;28;20425;-69
2023/08/21 08:56:43;;;;;;;4.43;3.43;;;;;;;32.20;53.32;97224.91;2067672;28;20456;-70
2023/08/21 08:57:46;;;;;;;6.80;3.73;;;;;;;32.53;53.48;97224.38;2068396;28;20428;-69
2023/08/21 08:58:48;;;;;;;5.83;3.90;;;;;;;32.96;53.32;97228.88;2068752;28;20427;-70
2023/08/21 08:59:49;;;;;;;4.40;3.70;;;;;;;33.02;53.09;97220.00;2068268;28;20497;-70
2023/08/21 09:00:51;;;;;;;12.87;4.73;;;;;;;32.96;53.50;97223.47;2068482;28;21269;-70
2023/08/21 09:01:53;;;;;;;6.93;4.10;;;;;;;32.85;52.80;97227.56;2068444;28;20505;-70
2023/08/21 09:02:55;;;;;;;7.60;4.60;;;;;;;32.76;52.23;97226.06;2069173;28;20895;-70
2023/08/21 09:03:57;;;;;;;15.30;3.80;;;;;;;32.87;52.89;97224.66;2068134;28;20465;-70
2023/08/21 09:04:58;;;;;;;9.63;4.13;;;;;;;32.73;52.61;97234.50;2068075;28;20462;-70
2023/08/21 09:06:00;;;;;;;6.73;4.40;;;;;;;32.70;52.94;97226.81;2068903;28;20432;-70
2023/08/21 09:07:09;;;;;;;5.30;4.03;;;;;;;33.09;51.17;97225.47;2069268;28;20514;-70
2023/08/21 09:08:12;;;;;;;8.67;4.07;;;;;;;32.87;51.46;97230.94;2068048;28;20464;-69
2023/08/21 09:09:14;;;;;;;9.27;3.83;;;;;;;33.16;52.08;97225.50;2064744;28;20795;-70
2023/08/21 09:10:15;;;;;;;4.97;3.37;;;;;;;33.12;52.63;97232.34;2065137;28;20434;-71
2023/08/21 09:11:17;;;;;;;6.70;3.70;;;;;;;33.52;51.38;97235.28;2067869;28;20797;-70
2023/08/21 09:12:20;;;;;;;6.37;3.63;;;;;;;33.08;50.01;97231.03;2064706;28;20421;-70
2023/08/21 09:13:21;;;;;;;7.40;3.67;;;;;;;32.95;51.47;97231.78;2065236;28;20435;-70
2023/08/21 09:14:28;;;;;;;8.30;3.87;;;;;;;33.18;51.12;97232.38;2065917;28;20436;-70
2023/08/21 09:15:29;;;;;;;9.13;3.80;;;;;;;33.43;50.61;97223.78;2067705;28;20489;-70
2023/08/21 09:17:01;;;;;;;7.53;4.13;;;;;;;33.12;50.57;97227.75;2067602;28;21274;-70
2023/08/21 09:18:03;;;;;;;10.17;3.97;;;;;;;33.32;49.57;97229.78;2073678;28;20430;-69
2023/08/21 09:19:05;;;;;;;9.90;3.30;;;;;;;32.64;49.76;97231.09;2074197;28;20423;-70
2023/08/21 09:20:10;;;;;;;4.60;3.43;;;;;;;31.58;51.84;97226.22;2067029;28;20426;-70
2023/08/21 09:21:12;;;;;;;12.23;3.87;;;;;;;31.45;52.61;97234.13;2067543;28;20486;-69
2023/08/21 09:22:18;;;;;;;7.23;3.50;;;;;;;32.48;50.96;97236.78;2067066;28;20435;-69
2023/08/21 09:23:19;;;;;;;8.60;3.53;;;;;;;32.76;50.61;97230.63;2075023;28;20462;-69
2023/08/21 09:24:21;;;;;;;13.60;3.87;;;;;;;33.11;50.34;97231.50;2071469;28;20434;-69
2023/08/21 09:25:26;;;;;;;7.73;4.23;;;;;;;32.73;51.13;97234.50;2065482;28;20428;-69
2023/08/21 09:26:31;;;;;;;10.00;4.03;;;;;;;33.11;50.12;97228.78;2074928;28;20538;-69
2023/08/21 09:27:38;;;;;;;5.50;3.40;;;;;;;33.28;50.20;97232.06;2070889;28;20469;-69
2023/08/21 09:28:40;;;;;;;5.53;3.70;;;;;;;32.50;51.43;97230.16;2066902;28;20768;-69
2023/08/21 09:29:42;;;;;;;9.60;4.57;;;;;;;32.92;51.22;97232.19;2065769;28;20427;-69
2023/08/21 09:30:52;;;;;;;6.87;3.97;;;;;;;33.53;50.64;97231.56;2066357;28;20472;-69
2023/08/21 09:31:56;;;;;;;7.97;3.90;;;;;;;34.00;50.12;97237.19;2065199;28;20467;-68
2023/08/21 09:33:04;;;;;;;8.80;3.57;;;;;;;34.13;49.06;97234.53;2067725;28;20431;-69
2023/08/21 09:34:06;;;;;;;8.90;4.40;;;;;;;34.21;48.68;97240.78;2068479;28;20423;-69
2023/08/21 09:35:13;;;;;;;5.03;3.80;;;;;;;33.84;49.63;97230.28;2067270;28;20478;-69
2023/08/21 09:36:16;;;;;;;6.83;3.97;;;;;;;34.07;49.34;97234.50;2066576;28;20577;-69
2023/08/21 09:37:18;;;;;;;7.37;3.67;;;;;;;34.26;48.31;97236.44;2067163;28;21172;-69
2023/08/21 09:38:20;;;;;;;5.10;3.23;;;;;;;34.25;47.97;97237.47;2067230;28;20435;-69
2023/08/21 09:39:22;;;;;;;6.20;3.57;;;;;;;34.36;47.17;97236.06;2067335;28;20424;-70
2023/08/21 09:40:24;;;;;;;8.77;4.30;;;;;;;34.23;47.47;97234.09;2067278;28;20420;-69
2023/08/21 09:41:26;;;;;;;10.07;3.87;;;;;;;34.11;48.08;97230.34;2066228;28;21097;-70
2023/08/21 09:42:28;;;;;;;6.20;3.50;;;;;;;33.87;49.08;97221.75;2067617;28;20423;-69
2023/08/21 09:43:29;;;;;;;11.43;3.60;;;;;;;33.82;49.18;97229.63;2064296;28;21189;-69
2023/08/21 09:44:35;;;;;;;6.90;3.43;;;;;;;34.00;49.34;97229.91;2064907;28;20911;-69
2023/08/21 09:45:37;;;;;;;5.03;4.07;;;;;;;34.13;49.52;97225.53;2066589;28;20428;-69
2023/08/21 09:46:40;;;;;;;9.00;3.97;;;;;;;34.43;48.83;97228.75;2066079;28;20455;-69
2023/08/21 09:47:42;;;;;;;5.27;4.13;;;;;;;34.80;48.80;97228.34;2068420;28;20477;-69
2023/08/21 09:48:47;;;;;;;5.03;3.60;;;;;;;35.20;48.08;97231.06;2067282;28;20439;-69
2023/08/21 09:49:50;;;;;;;8.40;3.70;;;;;;;34.44;47.50;97230.44;2066906;28;20431;-70
2023/08/21 09:50:51;;;;;;;7.40;3.70;;;;;;;33.53;49.01;97228.84;2067649;28;20427;-70
2023/08/21 09:51:54;;;;;;;7.90;3.47;;;;;;;33.18;49.88;97228.84;2068833;28;20827;-69
2023/08/21 09:52:57;;;;;;;8.37;3.57;;;;;;;32.65;49.99;97227.38;2069735;28;20961;-69
2023/08/21 09:53:59;;;;;;;6.03;3.77;;;;;;;33.00;50.39;97218.50;2067254;28;20427;-69
2023/08/21 09:55:03;;;;;;;7.40;3.70;;;;;;;33.13;50.92;97217.75;2067456;28;20463;-69
2023/08/21 09:56:05;;;;;;;5.37;3.90;;;;;;;32.92;49.92;97216.81;2067298;28;20459;-69
2023/08/21 09:57:07;;;;;;;9.00;4.10;;;;;;;33.16;49.63;97220.09;2071600;28;20428;-69
2023/08/21 09:58:09;;;;;;;10.53;3.93;;;;;;;33.49;49.26;97224.88;2071494;28;20539;-70
2023/08/21 09:59:11;;;;;;;10.47;3.93;;;;;;;34.02;49.21;97218.88;2067589;28;20423;-69
2023/08/21 10:00:15;;;;;;;11.43;3.53;;;;;;;34.56;48.42;97217.09;2067161;28;20449;-69
2023/08/21 10:01:19;;;;;;;7.50;3.53;;;;;;;34.58;46.71;97220.44;2068657;28;21017;-69
2023/08/21 10:02:22;;;;;;;16.50;3.83;;;;;;;33.61;48.97;97217.00;2063952;28;20428;-69
2023/08/21 10:03:24;;;;;;;5.53;3.60;;;;;;;33.33;49.16;97216.06;2065475;28;20772;-69
2023/08/21 10:04:30;;;;;;;5.67;3.70;;;;;;;32.87;49.59;97213.84;2067304;28;20542;-69
2023/08/21 10:05:33;;;;;;;6.33;3.50;;;;;;;33.26;49.37;97209.75;2068087;28;21151;-69
2023/08/21 10:06:36;;;;;;;9.30;3.80;;;;;;;33.77;48.64;97215.84;2066050;28;20464;-69
2023/08/21 10:07:38;;;;;;;8.20;4.07;;;;;;;33.46;49.29;97214.44;2068705;28;20987;-69
2023/08/21 10:08:42;;;;;;;13.70;4.00;;;;;;;34.03;49.54;97215.13;2067610;28;20962;-70
2023/08/21 10:09:44;;;;;;;11.30;4.20;;;;;;;34.39;48.62;97208.53;2068183;28;20541;-69
2023/08/21 10:10:46;;;;;;;5.60;3.40;;;;;;;34.14;48.99;97210.97;2066325;28;20499;-70
2023/08/21 10:11:48;;;;;;;9.07;4.03;;;;;;;33.97;49.45;97207.81;2067129;28;20460;-69
2023/08/21 10:12:50;;;;;;;6.67;3.87;;;;;;;33.90;49.42;97210.47;2067507;28;20521;-69
2023/08/21 10:13:52;;;;;;;8.93;4.03;;;;;;;34.20;48.58;97210.16;2067663;28;20563;-69
2023/08/21 10:14:53;;;;;;;7.13;3.37;;;;;;;34.56;47.86;97208.13;2067155;28;21031;-69
2023/08/21 10:15:55;;;;;;;5.30;3.53;;;;;;;34.79;47.57;97203.13;2066396;28;20519;-69
2023/08/21 10:16:56;;;;;;;10.40;3.90;;;;;;;34.43;47.41;97204.38;2063420;28;20464;-70
2023/08/21 10:17:58;;;;;;;10.53;3.67;;;;;;;34.74;47.42;97204.78;2064926;28;20466;-70
2023/08/21 10:19:05;;;;;;;7.83;3.70;;;;;;;35.21;47.31;97204.75;2067421;28;20421;-70
2023/08/21 10:20:09;;;;;;;7.10;3.80;;;;;;;34.75;47.85;97204.56;2066359;28;20542;-70
2023/08/21 10:21:18;;;;;;;14.00;4.30;;;;;;;35.06;47.62;97199.56;2063719;28;20436;-69
2023/08/21 10:22:47;;;;;;;6.80;3.50;;;;;;;33.11;49.55;97195.50;2065503;28;21063;-70
2023/08/21 10:23:50;;;;;;;4.87;3.47;;;;;;;33.00;49.92;97202.28;2066087;28;20757;-69
2023/08/21 10:24:59;;;;;;;25.43;22.67;;;;;;;34.74;47.46;97200.22;2066356;28;20436;-68
2023/08/21 10:26:05;;;;;;;49.60;40.23;;;;;;;35.28;46.69;97203.69;2066693;28;20959;-67
2023/08/21 10:27:07;;;;;;;12.10;9.17;;;;;;;35.76;46.07;97202.50;2068002;28;20443;-69
2023/08/21 10:28:09;;;;;;;5.70;3.80;;;;;;;36.19;45.40;97197.47;2067587;28;20435;-69
2023/08/21 10:29:11;;;;;;;7.87;4.10;;;;;;;36.53;44.37;97195.38;2067837;28;20431;-69
2023/08/21 10:30:20;;;;;;;6.67;3.43;;;;;;;36.26;45.51;97199.09;2069031;28;20436;-69
2023/08/21 10:31:28;;;;;;;10.30;4.07;;;;;;;36.45;44.97;97191.06;2066565;28;20825;-69
2023/08/21 10:32:30;;;;;;;7.57;3.43;;;;;;;36.56;44.98;97189.53;2066140;28;20526;-70
2023/08/21 10:33:47;;;;;;;6.17;3.80;;;;;;;36.35;45.37;97196.13;2065731;28;20424;-69
2023/08/21 10:34:53;;;;;;;8.10;3.10;;;;;;;37.04;44.81;97188.03;2076750;28;21255;-69
2023/08/21 10:35:55;;;;;;;5.70;3.50;;;;;;;36.84;44.23;97183.66;2074292;28;20434;-69
2023/08/21 10:37:06;;;;;;;7.93;3.07;;;;;;;36.56;44.43;97193.06;2066874;28;20506;-69
2023/08/21 10:38:17;;;;;;;6.37;4.00;;;;;;;35.99;45.21;97194.91;2067982;28;20514;-72
2023/08/21 10:39:24;;;;;;;5.20;3.40;;;;;;;36.45;44.46;97188.34;2067233;28;20971;-72
2023/08/21 10:40:26;;;;;;;9.23;3.80;;;;;;;36.84;43.67;97194.53;2067674;28;20504;-72
2023/08/21 10:41:28;;;;;;;7.33;3.17;;;;;;;37.31;43.33;97193.22;2065967;28;20505;-72
2023/08/21 10:42:40;;;;;;;5.90;3.10;;;;;;;37.10;43.41;97192.59;2066561;28;20420;-72
2023/08/21 10:43:44;;;;;;;6.33;3.67;;;;;;;37.66;42.27;97185.28;2068232;28;21345;-71
2023/08/21 10:44:51;;;;;;;4.90;3.87;;;;;;;37.86;41.92;97190.47;2068238;28;20930;-71
2023/08/21 10:45:55;;;;;;;5.20;4.27;;;;;;;37.27;42.22;97187.41;2063956;28;20459;-72
2023/08/21 10:47:19;;;;;;;6.00;3.50;;;;;;;36.33;43.34;97190.06;2064288;28;20452;-72
2023/08/21 10:48:21;;;;;;;4.50;3.40;;;;;;;35.82;44.27;97189.09;2063967;28;20428;-71
2023/08/21 10:49:22;;;;;;;7.27;3.93;;;;;;;35.17;45.10;97198.09;2064021;28;20441;-72
2023/08/21 10:50:24;;;;;;;6.80;3.37;;;;;;;35.60;44.38;97182.09;2067746;28;20480;-72
2023/08/21 10:51:29;;;;;;;6.10;3.17;;;;;;;36.80;43.19;97187.00;2065522;28;21056;-72
2023/08/21 10:52:32;;;;;;;7.87;4.13;;;;;;;37.38;43.89;97177.66;2067573;28;20679;-72
2023/08/21 10:53:35;;;;;;;7.67;3.27;;;;;;;36.31;43.93;97184.03;2066134;28;20433;-72
2023/08/21 10:54:46;;;;;;;8.10;3.73;;;;;;;36.39;44.46;97184.63;2075724;28;20748;-72
2023/08/21 10:55:54;;;;;;;16.43;4.40;;;;;;;36.15;44.38;97185.38;2075209;28;20533;-71
2023/08/21 10:56:56;;;;;;;6.63;3.17;;;;;;;36.33;43.99;97190.91;2068741;28;20598;-72
2023/08/21 10:57:57;;;;;;;11.30;4.03;;;;;;;36.55;43.18;97185.97;2068217;28;21008;-71
2023/08/21 10:58:59;;;;;;;11.03;4.10;;;;;;;36.80;42.99;97189.72;2066492;28;20428;-72
2023/08/21 11:00:12;;;;;;;8.43;4.30;;;;;;;37.14;43.35;97187.53;2066902;28;20423;-72
2023/08/21 11:01:14;;;;;;;12.83;3.70;;;;;;;38.09;42.09;97197.09;2064849;28;20811;-72
2023/08/21 11:02:15;;;;;;;8.13;3.30;;;;;;;38.80;41.04;97191.81;2066566;28;20419;-72
2023/08/21 11:03:17;;;;;;;10.43;3.60;;;;;;;39.30;40.08;97190.53;2064373;28;20559;-72
2023/08/21 11:04:18;;;;;;;6.60;3.63;;;;;;;38.95;40.06;97185.91;2066507;28;20428;-72
2023/08/21 11:05:20;;;;;;;4.93;2.90;;;;;;;38.16;41.44;97191.56;2066088;28;20458;-71
2023/08/21 11:06:22;;;;;;;6.73;2.73;;;;;;;38.44;41.27;97190.09;2065754;28;20810;-72
2023/08/21 11:07:24;;;;;;;7.70;3.60;;;;;;;38.23;41.79;97195.84;2066356;28;20428;-72
2023/08/21 11:08:26;;;;;;;8.20;3.23;;;;;;;37.95;41.78;97191.00;2067062;28;20431;-72
2023/08/21 11:09:27;;;;;;;8.97;3.60;;;;;;;38.80;41.27;97189.09;2068656;28;20427;-71
2023/08/21 11:10:31;;;;;;;6.37;2.90;;;;;;;39.47;39.96;97196.06;2066247;28;20962;-72
2023/08/21 11:11:35;;;;;;;6.17;3.10;;;;;;;39.47;39.38;97187.88;2069035;28;20479;-72
2023/08/21 11:12:36;;;;;;;4.00;3.03;;;;;;;39.50;39.34;97190.13;2067579;28;20901;-72
2023/08/21 11:13:38;;;;;;;10.20;4.17;;;;;;;39.63;39.44;97188.19;2063832;28;21126;-72
2023/08/21 11:14:40;;;;;;;8.87;3.73;;;;;;;39.86;38.71;97192.78;2064962;28;20439;-72
2023/08/21 11:15:42;;;;;;;10.53;3.87;;;;;;;38.87;40.17;97195.28;2067376;28;20983;-72
2023/08/21 11:16:44;;;;;;;7.73;3.27;;;;;;;39.11;40.34;97191.69;2070742;28;20973;-72
2023/08/21 11:18:00;;;;;;;7.30;3.40;;;;;;;38.60;40.36;97188.59;2070894;28;20476;-72
2023/08/21 11:19:05;;;;;;;9.73;3.20;;;;;;;38.79;40.23;97184.72;2066626;28;20436;-72
2023/08/21 11:20:08;;;;;;;6.97;3.20;;;;;;;39.10;39.88;97188.16;2067175;28;21155;-72
2023/08/21 11:21:11;;;;;;;6.73;3.23;;;;;;;38.41;40.27;97179.66;2065417;28;20474;-72
2023/08/21 11:22:13;;;;;;;6.63;3.03;;;;;;;38.55;40.38;97179.22;2065941;28;20535;-72
2023/08/21 11:23:14;;;;;;;7.63;3.90;;;;;;;38.09;40.53;97177.19;2066004;28;20424;-72
2023/08/21 11:24:16;;;;;;;10.23;3.70;;;;;;;38.29;39.83;97179.66;2066692;28;20451;-72
2023/08/21 11:25:17;;;;;;;6.63;3.30;;;;;;;38.36;40.37;97174.91;2067267;28;20803;-72
2023/08/21 11:26:21;;;;;;;5.17;3.47;;;;;;;38.11;40.29;97178.63;2065942;28;20440;-72
2023/08/21 11:27:22;;;;;;;7.23;3.50;;;;;;;37.34;41.31;97168.28;2069036;28;21009;-71
2023/08/21 11:28:34;;;;;;;5.03;3.60;;;;;;;36.98;42.08;97173.47;2067175;28;20470;-71
2023/08/21 11:29:41;;;;;;;9.13;3.07;;;;;;;37.32;41.97;97173.94;2066678;28;20423;-71
2023/08/21 11:30:43;;;;;;;5.57;3.90;;;;;;;37.32;42.11;97176.66;2066464;28;20455;-71
2023/08/21 11:31:47;;;;;;;7.30;3.70;;;;;;;36.30;42.97;97177.75;2063568;28;20551;-71
2023/08/21 11:32:48;;;;;;;7.00;3.87;;;;;;;36.35;43.64;97175.19;2063647;28;20545;-72
2023/08/21 11:33:50;;;;;;;7.50;3.40;;;;;;;37.22;42.65;97176.38;2063541;28;20780;-71
2023/08/21 11:34:56;;;;;;;5.43;3.47;;;;;;;37.09;42.28;97175.44;2066799;28;20481;-71
2023/08/21 11:36:00;;;;;;;6.73;3.77;;;;;;;37.05;42.25;97174.25;2067281;28;20428;-71
2023/08/21 11:37:01;;;;;;;6.93;3.43;;;;;;;36.61;42.05;97173.38;2067048;28;20463;-71
2023/08/21 11:38:04;;;;;;;7.10;3.20;;;;;;;36.07;43.24;97171.00;2067664;28;20427;-71
2023/08/21 11:39:08;;;;;;;6.20;3.87;;;;;;;35.28;44.11;97165.69;2063644;28;20904;-71
2023/08/21 11:40:10;;;;;;;7.50;3.90;;;;;;;35.40;44.66;97170.50;2067334;28;20914;-71
2023/08/21 11:41:11;;;;;;;16.97;4.17;;;;;;;36.05;44.39;97169.56;2068146;28;20427;-71
2023/08/21 11:42:14;;;;;;;7.13;3.77;;;;;;;35.77;44.11;97163.44;2067507;28;20448;-71
2023/08/21 11:43:15;;;;;;;10.03;3.83;;;;;;;35.02;45.14;97172.06;2068324;28;20449;-71
2023/08/21 11:44:16;;;;;;;5.90;3.93;;;;;;;35.00;44.56;97171.41;2063602;28;20424;-71
2023/08/21 11:45:21;;;;;;;11.07;4.37;;;;;;;36.58;42.79;97171.94;2064045;28;20432;-71
2023/08/21 11:46:23;;;;;;;9.47;3.07;;;;;;;36.81;43.19;97167.75;2065755;28;20804;-71
2023/08/21 11:47:30;;;;;;;5.73;3.50;;;;;;;36.87;43.30;97172.31;2065279;28;20427;-71
2023/08/21 11:48:32;;;;;;;5.93;3.50;;;;;;;37.86;41.84;97168.69;2068235;28;20490;-72
2023/08/21 11:49:36;;;;;;;10.80;3.97;;;;;;;38.43;41.27;97172.91;2067429;28;20532;-72
2023/08/21 11:50:39;;;;;;;8.37;3.80;;;;;;;38.41;41.15;97174.22;2067668;28;20424;-71
2023/08/21 11:51:43;;;;;;;7.27;3.93;;;;;;;39.33;39.16;97164.66;2066139;28;20533;-72
2023/08/21 11:52:44;;;;;;;7.43;3.80;;;;;;;38.14;40.89;97174.59;2065099;28;21023;-71
2023/08/21 11:53:48;;;;;;;5.17;3.53;;;;;;;37.01;42.41;97166.75;2067546;28;20427;-71
2023/08/21 11:54:51;;;;;;;7.83;3.67;;;;;;;38.39;41.31;97174.44;2067849;28;20471;-72
2023/08/21 11:55:53;;;;;;;6.53;3.50;;;;;;;38.16;40.54;97167.03;2070422;28;20539;-71
2023/08/21 11:56:58;;;;;;;7.03;4.03;;;;;;;38.65;40.06;97166.88;2067938;28;20459;-72
2023/08/21 11:58:02;;;;;;;8.40;3.80;;;;;;;38.52;40.16;97165.22;2067235;28;20428;-72
2023/08/21 11:59:04;;;;;;;6.40;3.77;;;;;;;39.09;39.57;97170.09;2067721;28;20477;-72
2023/08/21 12:00:11;;;;;;;9.03;3.63;;;;;;;39.60;39.12;97173.09;2068066;28;20431;-72
2023/08/21 12:01:19;;;;;;;9.73;3.80;;;;;;;36.64;41.98;97172.09;2067165;28;20519;-71
2023/08/21 12:02:22;;;;;;;5.63;3.20;;;;;;;36.25;42.60;97166.72;2068855;28;21005;-71